Impacts TAF Board
For situational awareness. Not to be used for flight planning purposes.
IDs:

KATL - Atlanta/Hartsfield-J, GA, US

Issued at 2142 UTC 20 Oct 2018
Updated at 2145 UTC 20 Oct 2018
Potential Impact None Slight Moderate High
Time<<21/10Z 21/11Z 21/12Z 21/13Z 21/14Z 21/15Z 21/16Z 21/17Z 21/18Z 21/19Z 21/20Z 21/21Z 21/22Z>>
Type PRVL PRVL PRVL PRVL PRVL PRVL PRVL PRVL PRVL PRVL PRVL PRVL PRVL
VIS >6 >6 >6 >6 >6 >6 >6 >6 >6 >6 >6 >6 >6
CIG -- -- -- -- -- -- -- -- -- -- -- -- --
Cover SKC SKC SKC SKC SKC SKC SKC SKC SKC SKC SKC SKC SKC
FltCat VFR VFR VFR VFR VFR VFR VFR VFR VFR VFR VFR VFR VFR
WX -- -- -- -- -- -- -- -- -- -- -- -- --
WDir 330 330 330 20 20 20 20 340 340 340 340 340 340
WSpd 15 15 15 11 11 11 11 8 8 8 8 8 8
WGst 25 25 25 18 18 18 18 -- -- -- -- -- --
Raw TAF
KATL 202142Z 2022/2124 31012G20KT P6SM FEW025
  TEMPO 2022/2023 BKN025
  FM210100 32012G20KT P6SM SKC
  FM210600 33015G25KT P6SM SKC
  FM211300 02011G18KT P6SM SKC
  FM211700 34008KT P6SM SKC


METAR Board
Radar Display
Forecast Discussion
For situational awareness. Not to be used for flight planning purposes.